sensor_id;sensor_type;location;lat;lon;timestamp;temperature;humidity
77865;DHT22;67061;48.524;9.040;2023-07-31T00:00:22;12.50;95.90
77865;DHT22;67061;48.524;9.040;2023-07-31T00:02:50;12.50;96.10
77865;DHT22;67061;48.524;9.040;2023-07-31T00:05:17;12.50;96.20
77865;DHT22;67061;48.524;9.040;2023-07-31T00:07:44;12.50;96.80
77865;DHT22;67061;48.524;9.040;2023-07-31T00:10:11;12.50;96.80
77865;DHT22;67061;48.524;9.040;2023-07-31T00:12:38;12.40;97.10
77865;DHT22;67061;48.524;9.040;2023-07-31T00:15:06;12.50;97.10
77865;DHT22;67061;48.524;9.040;2023-07-31T00:17:33;12.50;96.80
77865;DHT22;67061;48.524;9.040;2023-07-31T00:20:02;12.40;97.50
77865;DHT22;67061;48.524;9.040;2023-07-31T00:22:29;12.40;96.80
77865;DHT22;67061;48.524;9.040;2023-07-31T00:24:56;12.30;97.50
77865;DHT22;67061;48.524;9.040;2023-07-31T00:27:23;12.30;97.30
77865;DHT22;67061;48.524;9.040;2023-07-31T00:29:50;12.30;97.40
77865;DHT22;67061;48.524;9.040;2023-07-31T00:32:17;12.30;97.30
77865;DHT22;67061;48.524;9.040;2023-07-31T00:34:44;12.30;97.70
77865;DHT22;67061;48.524;9.040;2023-07-31T00:37:12;12.20;98.30
77865;DHT22;67061;48.524;9.040;2023-07-31T00:39:41;12.30;98.10
77865;DHT22;67061;48.524;9.040;2023-07-31T00:42:08;12.30;97.50
77865;DHT22;67061;48.524;9.040;2023-07-31T00:44:34;12.20;97.60
77865;DHT22;67061;48.524;9.040;2023-07-31T00:47:01;12.10;98.20
77865;DHT22;67061;48.524;9.040;2023-07-31T00:49:28;12.00;98.00
77865;DHT22;67061;48.524;9.040;2023-07-31T00:51:55;12.00;98.60
77865;DHT22;67061;48.524;9.040;2023-07-31T00:54:25;12.00;98.70
77865;DHT22;67061;48.524;9.040;2023-07-31T00:56:53;12.00;98.80
77865;DHT22;67061;48.524;9.040;2023-07-31T00:59:20;11.90;98.60
77865;DHT22;67061;48.524;9.040;2023-07-31T01:01:47;11.90;99.00
77865;DHT22;67061;48.524;9.040;2023-07-31T01:04:14;11.90;98.70
77865;DHT22;67061;48.524;9.040;2023-07-31T01:06:47;11.80;99.10
77865;DHT22;67061;48.524;9.040;2023-07-31T01:09:21;11.80;99.30
77865;DHT22;67061;48.524;9.040;2023-07-31T01:11:56;11.70;99.70
77865;DHT22;67061;48.524;9.040;2023-07-31T01:14:25;11.70;99.80
77865;DHT22;67061;48.524;9.040;2023-07-31T01:16:52;11.70;99.60
77865;DHT22;67061;48.524;9.040;2023-07-31T01:19:25;11.70;99.50
77865;DHT22;67061;48.524;9.040;2023-07-31T01:22:23;11.80;99.40
77865;DHT22;67061;48.524;9.040;2023-07-31T01:25:00;11.70;98.90
77865;DHT22;67061;48.524;9.040;2023-07-31T01:27:36;11.70;99.60
77865;DHT22;67061;48.524;9.040;2023-07-31T01:30:09;11.70;99.90
77865;DHT22;67061;48.524;9.040;2023-07-31T01:32:41;11.70;99.90
77865;DHT22;67061;48.524;9.040;2023-07-31T01:35:09;11.70;99.70
77865;DHT22;67061;48.524;9.040;2023-07-31T01:37:36;11.60;99.50
77865;DHT22;67061;48.524;9.040;2023-07-31T01:40:03;11.60;99.90
77865;DHT22;67061;48.524;9.040;2023-07-31T01:42:31;11.60;99.90
77865;DHT22;67061;48.524;9.040;2023-07-31T01:44:59;11.60;99.90
77865;DHT22;67061;48.524;9.040;2023-07-31T01:47:26;11.50;99.70
77865;DHT22;67061;48.524;9.040;2023-07-31T01:49:53;11.50;99.80
77865;DHT22;67061;48.524;9.040;2023-07-31T01:52:19;11.50;99.90
77865;DHT22;67061;48.524;9.040;2023-07-31T01:54:46;11.50;99.90
77865;DHT22;67061;48.524;9.040;2023-07-31T01:57:13;11.40;99.90
77865;DHT22;67061;48.524;9.040;2023-07-31T01:59:40;11.40;99.90
77865;DHT22;67061;48.524;9.040;2023-07-31T02:02:08;11.40;99.90
77865;DHT22;67061;48.524;9.040;2023-07-31T02:04:35;11.30;99.90
77865;DHT22;67061;48.524;9.040;2023-07-31T02:07:04;11.30;99.90
77865;DHT22;67061;48.524;9.040;2023-07-31T02:09:31;11.30;99.90
77865;DHT22;67061;48.524;9.040;2023-07-31T02:11:58;11.30;99.90
77865;DHT22;67061;48.524;9.040;2023-07-31T02:14:25;11.30;99.90
77865;DHT22;67061;48.524;9.040;2023-07-31T02:16:52;11.20;99.90
77865;DHT22;67061;48.524;9.040;2023-07-31T02:19:20;11.10;99.90
77865;DHT22;67061;48.524;9.040;2023-07-31T02:21:47;11.10;99.90
77865;DHT22;67061;48.524;9.040;2023-07-31T02:24:14;11.10;99.90
77865;DHT22;67061;48.524;9.040;2023-07-31T02:26:40;11.10;99.90
77865;DHT22;67061;48.524;9.040;2023-07-31T02:29:08;11.10;99.90
77865;DHT22;67061;48.524;9.040;2023-07-31T02:31:35;11.10;99.90
77865;DHT22;67061;48.524;9.040;2023-07-31T02:34:02;11.10;99.90
77865;DHT22;67061;48.524;9.040;2023-07-31T02:36:30;11.10;99.90
77865;DHT22;67061;48.524;9.040;2023-07-31T02:38:57;11.10;99.90
77865;DHT22;67061;48.524;9.040;2023-07-31T02:41:23;11.10;99.90
77865;DHT22;67061;48.524;9.040;2023-07-31T02:43:50;11.10;99.90
77865;DHT22;67061;48.524;9.040;2023-07-31T02:46:17;11.10;99.90
77865;DHT22;67061;48.524;9.040;2023-07-31T02:48:44;11.10;99.90
77865;DHT22;67061;48.524;9.040;2023-07-31T02:51:11;11.10;99.90
77865;DHT22;67061;48.524;9.040;2023-07-31T02:53:39;11.10;99.90
77865;DHT22;67061;48.524;9.040;2023-07-31T02:56:06;11.10;99.90
77865;DHT22;67061;48.524;9.040;2023-07-31T02:58:32;11.10;99.90
77865;DHT22;67061;48.524;9.040;2023-07-31T03:00:59;11.10;99.90
77865;DHT22;67061;48.524;9.040;2023-07-31T03:03:26;11.10;99.90
77865;DHT22;67061;48.524;9.040;2023-07-31T03:05:53;11.10;99.90
77865;DHT22;67061;48.524;9.040;2023-07-31T03:08:20;11.00;99.90
77865;DHT22;67061;48.524;9.040;2023-07-31T03:10:48;11.00;99.90
77865;DHT22;67061;48.524;9.040;2023-07-31T03:13:15;11.00;99.90
77865;DHT22;67061;48.524;9.040;2023-07-31T03:15:42;11.00;99.90
77865;DHT22;67061;48.524;9.040;2023-07-31T03:18:09;11.00;99.90
77865;DHT22;67061;48.524;9.040;2023-07-31T03:20:36;11.00;99.90
77865;DHT22;67061;48.524;9.040;2023-07-31T03:23:03;11.00;99.90
77865;DHT22;67061;48.524;9.040;2023-07-31T03:25:29;11.00;99.90
77865;DHT22;67061;48.524;9.040;2023-07-31T03:27:58;11.00;99.90
77865;DHT22;67061;48.524;9.040;2023-07-31T03:30:25;10.90;99.90
77865;DHT22;67061;48.524;9.040;2023-07-31T03:32:51;10.90;99.90
77865;DHT22;67061;48.524;9.040;2023-07-31T03:35:18;10.90;99.90
77865;DHT22;67061;48.524;9.040;2023-07-31T03:37:45;10.90;99.90
77865;DHT22;67061;48.524;9.040;2023-07-31T03:40:12;10.90;99.90
77865;DHT22;67061;48.524;9.040;2023-07-31T03:42:39;10.90;99.90
77865;DHT22;67061;48.524;9.040;2023-07-31T03:45:09;10.90;99.90
77865;DHT22;67061;48.524;9.040;2023-07-31T03:47:36;10.90;99.90
77865;DHT22;67061;48.524;9.040;2023-07-31T03:50:03;10.90;99.90
77865;DHT22;67061;48.524;9.040;2023-07-31T03:52:30;10.90;99.90
77865;DHT22;67061;48.524;9.040;2023-07-31T03:54:57;10.90;99.90
77865;DHT22;67061;48.524;9.040;2023-07-31T03:57:24;10.80;99.90
77865;DHT22;67061;48.524;9.040;2023-07-31T03:59:51;10.90;99.90
77865;DHT22;67061;48.524;9.040;2023-07-31T04:02:19;10.90;99.90
77865;DHT22;67061;48.524;9.040;2023-07-31T04:04:46;11.00;99.90
77865;DHT22;67061;48.524;9.040;2023-07-31T04:07:13;11.00;99.90
77865;DHT22;67061;48.524;9.040;2023-07-31T04:09:39;11.00;99.90
77865;DHT22;67061;48.524;9.040;2023-07-31T04:12:07;11.00;99.90
77865;DHT22;67061;48.524;9.040;2023-07-31T04:14:34;11.10;99.90
77865;DHT22;67061;48.524;9.040;2023-07-31T04:17:00;11.00;99.90
77865;DHT22;67061;48.524;9.040;2023-07-31T04:19:29;11.10;99.90
77865;DHT22;67061;48.524;9.040;2023-07-31T04:21:56;11.10;99.90
77865;DHT22;67061;48.524;9.040;2023-07-31T04:24:22;11.10;99.90
77865;DHT22;67061;48.524;9.040;2023-07-31T04:26:50;11.10;99.90
77865;DHT22;67061;48.524;9.040;2023-07-31T04:29:17;11.10;99.90
77865;DHT22;67061;48.524;9.040;2023-07-31T04:31:44;11.10;99.90
77865;DHT22;67061;48.524;9.040;2023-07-31T04:34:11;11.10;99.90
77865;DHT22;67061;48.524;9.040;2023-07-31T04:36:39;11.30;99.90
77865;DHT22;67061;48.524;9.040;2023-07-31T04:39:06;11.40;99.90
77865;DHT22;67061;48.524;9.040;2023-07-31T04:41:33;11.40;99.90
77865;DHT22;67061;48.524;9.040;2023-07-31T04:44:00;11.50;99.90
77865;DHT22;67061;48.524;9.040;2023-07-31T04:46:29;11.50;99.90
77865;DHT22;67061;48.524;9.040;2023-07-31T04:48:56;11.70;99.90
77865;DHT22;67061;48.524;9.040;2023-07-31T04:51:23;11.70;99.90
77865;DHT22;67061;48.524;9.040;2023-07-31T04:53:52;11.70;99.90
77865;DHT22;67061;48.524;9.040;2023-07-31T04:56:18;11.80;99.90
77865;DHT22;67061;48.524;9.040;2023-07-31T04:58:45;11.90;99.90
77865;DHT22;67061;48.524;9.040;2023-07-31T05:01:12;11.90;99.90
77865;DHT22;67061;48.524;9.040;2023-07-31T05:03:39;11.90;99.90
77865;DHT22;67061;48.524;9.040;2023-07-31T05:06:06;12.00;99.90
77865;DHT22;67061;48.524;9.040;2023-07-31T05:08:33;12.00;99.90
77865;DHT22;67061;48.524;9.040;2023-07-31T05:11:02;12.10;99.90
77865;DHT22;67061;48.524;9.040;2023-07-31T05:13:29;12.10;99.90
77865;DHT22;67061;48.524;9.040;2023-07-31T05:15:56;12.10;99.40
77865;DHT22;67061;48.524;9.040;2023-07-31T05:18:23;12.20;99.40
77865;DHT22;67061;48.524;9.040;2023-07-31T05:20:50;12.30;99.90
77865;DHT22;67061;48.524;9.040;2023-07-31T05:23:17;12.30;99.10
77865;DHT22;67061;48.524;9.040;2023-07-31T05:25:43;12.50;98.60
77865;DHT22;67061;48.524;9.040;2023-07-31T05:28:12;12.50;98.50
77865;DHT22;67061;48.524;9.040;2023-07-31T05:30:39;12.50;98.30
77865;DHT22;67061;48.524;9.040;2023-07-31T05:33:05;12.70;97.80
77865;DHT22;67061;48.524;9.040;2023-07-31T05:35:32;12.80;97.40
77865;DHT22;67061;48.524;9.040;2023-07-31T05:37:59;12.90;96.20
77865;DHT22;67061;48.524;9.040;2023-07-31T05:40:26;13.10;96.00
77865;DHT22;67061;48.524;9.040;2023-07-31T05:42:53;13.10;94.50
77865;DHT22;67061;48.524;9.040;2023-07-31T05:45:21;13.20;93.90
77865;DHT22;67061;48.524;9.040;2023-07-31T05:47:48;13.30;94.00
77865;DHT22;67061;48.524;9.040;2023-07-31T05:50:15;13.40;94.50
77865;DHT22;67061;48.524;9.040;2023-07-31T05:52:42;13.50;94.20
77865;DHT22;67061;48.524;9.040;2023-07-31T05:55:09;13.60;94.00
77865;DHT22;67061;48.524;9.040;2023-07-31T05:57:36;13.70;92.70
77865;DHT22;67061;48.524;9.040;2023-07-31T06:00:03;13.90;93.70
77865;DHT22;67061;48.524;9.040;2023-07-31T06:02:32;13.90;92.20
77865;DHT22;67061;48.524;9.040;2023-07-31T06:05:02;14.00;91.80
77865;DHT22;67061;48.524;9.040;2023-07-31T06:07:29;14.10;92.00
77865;DHT22;67061;48.524;9.040;2023-07-31T06:09:56;14.20;92.50
77865;DHT22;67061;48.524;9.040;2023-07-31T06:12:28;14.20;92.60
77865;DHT22;67061;48.524;9.040;2023-07-31T06:14:55;14.20;92.30
77865;DHT22;67061;48.524;9.040;2023-07-31T06:17:22;14.30;93.80
77865;DHT22;67061;48.524;9.040;2023-07-31T06:19:51;14.30;93.90
77865;DHT22;67061;48.524;9.040;2023-07-31T06:22:18;14.40;93.30
77865;DHT22;67061;48.524;9.040;2023-07-31T06:24:45;14.50;95.50
77865;DHT22;67061;48.524;9.040;2023-07-31T06:27:12;14.50;94.30
77865;DHT22;67061;48.524;9.040;2023-07-31T06:29:38;14.50;96.00
77865;DHT22;67061;48.524;9.040;2023-07-31T06:32:06;14.60;95.20
77865;DHT22;67061;48.524;9.040;2023-07-31T06:34:33;14.60;93.50
77865;DHT22;67061;48.524;9.040;2023-07-31T06:37:01;14.70;94.40
77865;DHT22;67061;48.524;9.040;2023-07-31T06:39:28;14.80;93.70
77865;DHT22;67061;48.524;9.040;2023-07-31T06:41:55;14.90;92.30
77865;DHT22;67061;48.524;9.040;2023-07-31T06:44:22;15.10;91.40
77865;DHT22;67061;48.524;9.040;2023-07-31T06:46:49;15.40;91.80
77865;DHT22;67061;48.524;9.040;2023-07-31T06:49:16;15.60;88.00
77865;DHT22;67061;48.524;9.040;2023-07-31T06:51:43;15.70;86.70
77865;DHT22;67061;48.524;9.040;2023-07-31T06:54:12;15.80;85.80
77865;DHT22;67061;48.524;9.040;2023-07-31T06:56:39;16.00;86.00
77865;DHT22;67061;48.524;9.040;2023-07-31T06:59:06;16.10;85.30
77865;DHT22;67061;48.524;9.040;2023-07-31T07:01:32;16.20;84.60
77865;DHT22;67061;48.524;9.040;2023-07-31T07:03:59;16.30;82.60
77865;DHT22;67061;48.524;9.040;2023-07-31T07:06:26;16.40;83.40
77865;DHT22;67061;48.524;9.040;2023-07-31T07:08:53;16.40;83.60
77865;DHT22;67061;48.524;9.040;2023-07-31T07:11:21;16.50;83.60
77865;DHT22;67061;48.524;9.040;2023-07-31T07:13:48;16.70;82.50
77865;DHT22;67061;48.524;9.040;2023-07-31T07:16:15;16.80;82.30
77865;DHT22;67061;48.524;9.040;2023-07-31T07:18:42;16.90;80.90
77865;DHT22;67061;48.524;9.040;2023-07-31T07:21:09;17.00;79.50
77865;DHT22;67061;48.524;9.040;2023-07-31T07:23:40;17.00;78.80
77865;DHT22;67061;48.524;9.040;2023-07-31T07:26:06;17.20;79.50
77865;DHT22;67061;48.524;9.040;2023-07-31T07:28:35;17.40;78.90
77865;DHT22;67061;48.524;9.040;2023-07-31T07:31:03;17.50;78.40
77865;DHT22;67061;48.524;9.040;2023-07-31T07:33:30;17.60;77.90
77865;DHT22;67061;48.524;9.040;2023-07-31T07:36:00;17.60;76.20
77865;DHT22;67061;48.524;9.040;2023-07-31T07:38:27;17.60;76.30
77865;DHT22;67061;48.524;9.040;2023-07-31T07:40:54;17.60;73.30
77865;DHT22;67061;48.524;9.040;2023-07-31T07:43:21;17.60;75.50
77865;DHT22;67061;48.524;9.040;2023-07-31T07:45:49;17.80;74.10
77865;DHT22;67061;48.524;9.040;2023-07-31T07:48:16;17.80;72.30
77865;DHT22;67061;48.524;9.040;2023-07-31T07:50:43;17.80;72.20
77865;DHT22;67061;48.524;9.040;2023-07-31T07:53:10;17.90;71.60
77865;DHT22;67061;48.524;9.040;2023-07-31T07:55:37;18.00;71.70
77865;DHT22;67061;48.524;9.040;2023-07-31T07:58:04;18.00;71.50
77865;DHT22;67061;48.524;9.040;2023-07-31T08:00:31;18.10;71.20
77865;DHT22;67061;48.524;9.040;2023-07-31T08:02:59;18.20;70.70
77865;DHT22;67061;48.524;9.040;2023-07-31T08:05:26;18.30;69.20
77865;DHT22;67061;48.524;9.040;2023-07-31T08:07:53;18.40;67.10
77865;DHT22;67061;48.524;9.040;2023-07-31T08:10:20;18.50;66.20
77865;DHT22;67061;48.524;9.040;2023-07-31T08:12:46;18.60;65.10
77865;DHT22;67061;48.524;9.040;2023-07-31T08:15:13;18.70;64.70
77865;DHT22;67061;48.524;9.040;2023-07-31T08:17:40;18.80;64.50
77865;DHT22;67061;48.524;9.040;2023-07-31T08:20:10;18.90;64.60
77865;DHT22;67061;48.524;9.040;2023-07-31T08:22:37;19.10;64.70
77865;DHT22;67061;48.524;9.040;2023-07-31T08:25:05;19.20;62.40
77865;DHT22;67061;48.524;9.040;2023-07-31T08:27:32;19.30;62.80
77865;DHT22;67061;48.524;9.040;2023-07-31T08:29:59;19.30;63.80
77865;DHT22;67061;48.524;9.040;2023-07-31T08:32:26;19.30;63.30
77865;DHT22;67061;48.524;9.040;2023-07-31T08:34:53;19.50;61.80
77865;DHT22;67061;48.524;9.040;2023-07-31T08:37:21;19.50;62.80
77865;DHT22;67061;48.524;9.040;2023-07-31T08:39:48;19.70;62.50
77865;DHT22;67061;48.524;9.040;2023-07-31T08:42:15;19.90;61.30
77865;DHT22;67061;48.524;9.040;2023-07-31T08:44:43;20.00;62.30
77865;DHT22;67061;48.524;9.040;2023-07-31T08:47:12;20.00;59.90
77865;DHT22;67061;48.524;9.040;2023-07-31T08:49:41;19.90;60.40
77865;DHT22;67061;48.524;9.040;2023-07-31T08:52:09;19.70;60.30
77865;DHT22;67061;48.524;9.040;2023-07-31T08:54:38;19.70;62.50
77865;DHT22;67061;48.524;9.040;2023-07-31T08:57:06;20.00;61.60
77865;DHT22;67061;48.524;9.040;2023-07-31T08:59:35;20.20;61.00
77865;DHT22;67061;48.524;9.040;2023-07-31T09:02:06;20.30;60.10
77865;DHT22;67061;48.524;9.040;2023-07-31T09:04:34;20.30;60.00
77865;DHT22;67061;48.524;9.040;2023-07-31T09:07:03;20.20;59.10
77865;DHT22;67061;48.524;9.040;2023-07-31T09:09:30;20.10;60.10
77865;DHT22;67061;48.524;9.040;2023-07-31T09:11:59;20.00;60.50
77865;DHT22;67061;48.524;9.040;2023-07-31T09:14:26;20.00;61.50
77865;DHT22;67061;48.524;9.040;2023-07-31T09:16:54;20.10;60.70
77865;DHT22;67061;48.524;9.040;2023-07-31T09:19:29;20.30;60.60
77865;DHT22;67061;48.524;9.040;2023-07-31T09:21:56;20.50;59.20
77865;DHT22;67061;48.524;9.040;2023-07-31T09:24:27;20.50;59.50
77865;DHT22;67061;48.524;9.040;2023-07-31T09:26:54;20.60;60.70
77865;DHT22;67061;48.524;9.040;2023-07-31T09:29:24;20.70;59.90
77865;DHT22;67061;48.524;9.040;2023-07-31T09:31:52;20.80;59.60
77865;DHT22;67061;48.524;9.040;2023-07-31T09:34:20;20.80;59.20
77865;DHT22;67061;48.524;9.040;2023-07-31T09:36:54;20.80;60.70
77865;DHT22;67061;48.524;9.040;2023-07-31T09:39:22;20.70;58.00
77865;DHT22;67061;48.524;9.040;2023-07-31T09:41:54;20.70;58.80
77865;DHT22;67061;48.524;9.040;2023-07-31T09:44:22;20.70;58.40
77865;DHT22;67061;48.524;9.040;2023-07-31T09:47:04;20.70;58.90
77865;DHT22;67061;48.524;9.040;2023-07-31T09:49:31;20.90;60.10
77865;DHT22;67061;48.524;9.040;2023-07-31T09:51:57;20.90;57.90
77865;DHT22;67061;48.524;9.040;2023-07-31T09:54:25;20.90;57.80
77865;DHT22;67061;48.524;9.040;2023-07-31T09:56:52;21.00;57.60
77865;DHT22;67061;48.524;9.040;2023-07-31T09:59:21;21.10;57.20
77865;DHT22;67061;48.524;9.040;2023-07-31T10:01:49;21.10;55.40
77865;DHT22;67061;48.524;9.040;2023-07-31T10:04:18;21.00;55.90
77865;DHT22;67061;48.524;9.040;2023-07-31T10:06:50;21.10;57.80
77865;DHT22;67061;48.524;9.040;2023-07-31T10:09:18;21.20;56.80
77865;DHT22;67061;48.524;9.040;2023-07-31T10:11:51;21.40;56.60
77865;DHT22;67061;48.524;9.040;2023-07-31T10:14:21;21.50;55.50
77865;DHT22;67061;48.524;9.040;2023-07-31T10:16:52;21.50;56.80
77865;DHT22;67061;48.524;9.040;2023-07-31T10:19:20;21.50;54.40
77865;DHT22;67061;48.524;9.040;2023-07-31T10:21:49;21.50;56.10
77865;DHT22;67061;48.524;9.040;2023-07-31T10:24:16;21.40;54.90
77865;DHT22;67061;48.524;9.040;2023-07-31T10:26:45;21.50;55.20
77865;DHT22;67061;48.524;9.040;2023-07-31T10:29:15;21.50;54.10
77865;DHT22;67061;48.524;9.040;2023-07-31T10:31:43;21.50;56.10
77865;DHT22;67061;48.524;9.040;2023-07-31T10:34:13;21.70;54.30
77865;DHT22;67061;48.524;9.040;2023-07-31T10:36:40;21.70;54.60
77865;DHT22;67061;48.524;9.040;2023-07-31T10:39:33;21.90;54.30
77865;DHT22;67061;48.524;9.040;2023-07-31T10:42:11;21.90;54.20
77865;DHT22;67061;48.524;9.040;2023-07-31T10:44:38;21.70;54.60
77865;DHT22;67061;48.524;9.040;2023-07-31T10:47:14;21.80;54.80
77865;DHT22;67061;48.524;9.040;2023-07-31T10:49:44;21.80;55.10
77865;DHT22;67061;48.524;9.040;2023-07-31T10:52:19;22.00;54.50
77865;DHT22;67061;48.524;9.040;2023-07-31T10:54:48;22.20;54.00
77865;DHT22;67061;48.524;9.040;2023-07-31T10:57:22;22.50;53.00
77865;DHT22;67061;48.524;9.040;2023-07-31T10:59:50;22.50;52.70
77865;DHT22;67061;48.524;9.040;2023-07-31T11:02:25;22.70;52.20
77865;DHT22;67061;48.524;9.040;2023-07-31T11:05:08;22.70;53.00
77865;DHT22;67061;48.524;9.040;2023-07-31T11:07:48;22.70;52.20
77865;DHT22;67061;48.524;9.040;2023-07-31T11:10:18;22.90;52.80
77865;DHT22;67061;48.524;9.040;2023-07-31T11:12:47;23.10;52.20
77865;DHT22;67061;48.524;9.040;2023-07-31T11:15:14;23.20;51.60
77865;DHT22;67061;48.524;9.040;2023-07-31T11:17:42;23.50;51.80
77865;DHT22;67061;48.524;9.040;2023-07-31T11:20:09;23.80;50.10
77865;DHT22;67061;48.524;9.040;2023-07-31T11:22:37;23.90;50.90
77865;DHT22;67061;48.524;9.040;2023-07-31T11:25:04;24.00;50.40
77865;DHT22;67061;48.524;9.040;2023-07-31T11:27:38;24.30;50.60
77865;DHT22;67061;48.524;9.040;2023-07-31T11:30:07;24.60;48.70
77865;DHT22;67061;48.524;9.040;2023-07-31T11:32:36;24.80;48.00
77865;DHT22;67061;48.524;9.040;2023-07-31T11:35:03;24.80;48.70
77865;DHT22;67061;48.524;9.040;2023-07-31T11:37:41;24.90;48.70
77865;DHT22;67061;48.524;9.040;2023-07-31T11:40:08;24.50;47.90
77865;DHT22;67061;48.524;9.040;2023-07-31T11:42:35;24.00;47.80
77865;DHT22;67061;48.524;9.040;2023-07-31T11:45:03;23.80;48.90
77865;DHT22;67061;48.524;9.040;2023-07-31T11:47:32;23.60;50.30
77865;DHT22;67061;48.524;9.040;2023-07-31T11:50:00;23.50;50.10
77865;DHT22;67061;48.524;9.040;2023-07-31T11:52:28;23.40;49.70
77865;DHT22;67061;48.524;9.040;2023-07-31T11:54:55;23.30;49.90
77865;DHT22;67061;48.524;9.040;2023-07-31T11:57:23;23.20;50.80
77865;DHT22;67061;48.524;9.040;2023-07-31T11:59:50;22.90;51.80
77865;DHT22;67061;48.524;9.040;2023-07-31T12:02:18;22.80;54.30
77865;DHT22;67061;48.524;9.040;2023-07-31T12:04:47;22.50;52.90
77865;DHT22;67061;48.524;9.040;2023-07-31T12:07:14;22.30;54.70
77865;DHT22;67061;48.524;9.040;2023-07-31T12:09:51;22.20;56.80
77865;DHT22;67061;48.524;9.040;2023-07-31T12:12:20;22.10;57.20
77865;DHT22;67061;48.524;9.040;2023-07-31T12:14:47;22.00;57.70
77865;DHT22;67061;48.524;9.040;2023-07-31T12:17:18;21.90;60.70
77865;DHT22;67061;48.524;9.040;2023-07-31T12:19:48;21.70;59.90
77865;DHT22;67061;48.524;9.040;2023-07-31T12:22:16;21.70;62.70
77865;DHT22;67061;48.524;9.040;2023-07-31T12:24:44;21.70;61.20
77865;DHT22;67061;48.524;9.040;2023-07-31T12:27:11;21.70;60.10
77865;DHT22;67061;48.524;9.040;2023-07-31T12:29:39;21.70;59.80
77865;DHT22;67061;48.524;9.040;2023-07-31T12:32:21;21.90;59.40
77865;DHT22;67061;48.524;9.040;2023-07-31T12:34:50;22.00;57.90
77865;DHT22;67061;48.524;9.040;2023-07-31T12:37:17;22.20;57.30
77865;DHT22;67061;48.524;9.040;2023-07-31T12:39:44;22.60;56.40
77865;DHT22;67061;48.524;9.040;2023-07-31T12:42:11;22.90;55.80
77865;DHT22;67061;48.524;9.040;2023-07-31T12:44:38;23.20;54.30
77865;DHT22;67061;48.524;9.040;2023-07-31T12:47:05;23.50;53.90
77865;DHT22;67061;48.524;9.040;2023-07-31T12:49:32;23.80;52.70
77865;DHT22;67061;48.524;9.040;2023-07-31T12:52:00;23.80;51.60
77865;DHT22;67061;48.524;9.040;2023-07-31T12:54:28;23.70;52.70
77865;DHT22;67061;48.524;9.040;2023-07-31T12:56:55;23.70;53.70
77865;DHT22;67061;48.524;9.040;2023-07-31T12:59:22;23.70;51.80
77865;DHT22;67061;48.524;9.040;2023-07-31T13:01:48;23.60;52.20
77865;DHT22;67061;48.524;9.040;2023-07-31T13:04:15;23.40;52.80
77865;DHT22;67061;48.524;9.040;2023-07-31T13:06:42;23.30;53.00
77865;DHT22;67061;48.524;9.040;2023-07-31T13:09:10;23.30;54.00
77865;DHT22;67061;48.524;9.040;2023-07-31T13:11:39;23.40;53.10
77865;DHT22;67061;48.524;9.040;2023-07-31T13:14:05;23.40;53.50
77865;DHT22;67061;48.524;9.040;2023-07-31T13:16:32;23.40;52.50
77865;DHT22;67061;48.524;9.040;2023-07-31T13:18:58;23.40;52.30
77865;DHT22;67061;48.524;9.040;2023-07-31T13:21:25;23.40;52.00
77865;DHT22;67061;48.524;9.040;2023-07-31T13:23:53;23.40;51.40
77865;DHT22;67061;48.524;9.040;2023-07-31T13:26:25;23.30;52.00
77865;DHT22;67061;48.524;9.040;2023-07-31T13:28:52;23.20;50.10
77865;DHT22;67061;48.524;9.040;2023-07-31T13:31:19;22.90;50.50
77865;DHT22;67061;48.524;9.040;2023-07-31T13:33:46;22.70;50.90
77865;DHT22;67061;48.524;9.040;2023-07-31T13:36:13;22.60;51.40
77865;DHT22;67061;48.524;9.040;2023-07-31T13:38:40;22.50;51.90
77865;DHT22;67061;48.524;9.040;2023-07-31T13:41:07;22.40;52.00
77865;DHT22;67061;48.524;9.040;2023-07-31T13:43:37;22.20;52.70
77865;DHT22;67061;48.524;9.040;2023-07-31T13:46:08;22.10;52.90
77865;DHT22;67061;48.524;9.040;2023-07-31T13:48:36;22.00;52.70
77865;DHT22;67061;48.524;9.040;2023-07-31T13:51:03;21.90;54.00
77865;DHT22;67061;48.524;9.040;2023-07-31T13:53:31;21.90;53.40
77865;DHT22;67061;48.524;9.040;2023-07-31T13:55:58;21.90;53.40
77865;DHT22;67061;48.524;9.040;2023-07-31T13:58:25;21.90;53.50
77865;DHT22;67061;48.524;9.040;2023-07-31T14:00:53;21.70;53.70
77865;DHT22;67061;48.524;9.040;2023-07-31T14:03:20;21.70;53.80
77865;DHT22;67061;48.524;9.040;2023-07-31T14:05:47;21.70;55.00
77865;DHT22;67061;48.524;9.040;2023-07-31T14:08:13;21.80;54.80
77865;DHT22;67061;48.524;9.040;2023-07-31T14:10:40;21.90;55.20
77865;DHT22;67061;48.524;9.040;2023-07-31T14:13:07;21.80;55.10
77865;DHT22;67061;48.524;9.040;2023-07-31T14:15:34;21.70;56.10
77865;DHT22;67061;48.524;9.040;2023-07-31T14:18:03;21.70;56.60
77865;DHT22;67061;48.524;9.040;2023-07-31T14:20:30;21.70;56.80
77865;DHT22;67061;48.524;9.040;2023-07-31T14:22:58;21.70;57.20
77865;DHT22;67061;48.524;9.040;2023-07-31T14:25:27;21.70;56.40
77865;DHT22;67061;48.524;9.040;2023-07-31T14:27:54;21.70;56.90
77865;DHT22;67061;48.524;9.040;2023-07-31T14:30:21;21.70;55.90
77865;DHT22;67061;48.524;9.040;2023-07-31T14:32:48;21.70;55.70
77865;DHT22;67061;48.524;9.040;2023-07-31T14:35:18;21.60;56.10
77865;DHT22;67061;48.524;9.040;2023-07-31T14:37:47;21.60;55.80
77865;DHT22;67061;48.524;9.040;2023-07-31T14:40:14;21.70;55.70
77865;DHT22;67061;48.524;9.040;2023-07-31T14:42:40;21.70;56.20
77865;DHT22;67061;48.524;9.040;2023-07-31T14:45:08;21.70;55.50
77865;DHT22;67061;48.524;9.040;2023-07-31T14:47:36;21.70;56.40
77865;DHT22;67061;48.524;9.040;2023-07-31T14:50:21;21.70;55.70
77865;DHT22;67061;48.524;9.040;2023-07-31T14:52:49;21.70;56.60
77865;DHT22;67061;48.524;9.040;2023-07-31T14:55:16;21.70;55.80
77865;DHT22;67061;48.524;9.040;2023-07-31T14:57:43;21.60;56.00
77865;DHT22;67061;48.524;9.040;2023-07-31T15:00:11;21.50;56.60
77865;DHT22;67061;48.524;9.040;2023-07-31T15:02:38;21.50;57.00
77865;DHT22;67061;48.524;9.040;2023-07-31T15:05:06;21.50;56.40
77865;DHT22;67061;48.524;9.040;2023-07-31T15:07:34;21.50;57.10
77865;DHT22;67061;48.524;9.040;2023-07-31T15:10:01;21.50;57.30
77865;DHT22;67061;48.524;9.040;2023-07-31T15:12:29;21.50;57.30
77865;DHT22;67061;48.524;9.040;2023-07-31T15:14:56;21.60;57.80
77865;DHT22;67061;48.524;9.040;2023-07-31T15:17:23;21.60;57.70
77865;DHT22;67061;48.524;9.040;2023-07-31T15:19:50;21.70;58.70
77865;DHT22;67061;48.524;9.040;2023-07-31T15:22:21;21.80;58.90
77865;DHT22;67061;48.524;9.040;2023-07-31T15:24:50;21.90;59.50
77865;DHT22;67061;48.524;9.040;2023-07-31T15:27:17;21.90;58.60
77865;DHT22;67061;48.524;9.040;2023-07-31T15:29:46;22.00;58.30
77865;DHT22;67061;48.524;9.040;2023-07-31T15:32:13;22.00;59.30
77865;DHT22;67061;48.524;9.040;2023-07-31T15:34:40;22.10;58.00